| time (UTC) | temp C | wind direction | speed KPH | gust KPH | rain 1hr cm | rain 24hr cm | rain mn cm | humidity % | barometer mb |
| 20260506104009 | 17 | 21 | 3.2 | 3.2 | 0.00 | 0.00 | 0.00 | 84 | 981.9 |
| 20260506103504 | 17 | 11 | 1.6 | 3.2 | 0.00 | 0.00 | 0.00 | 84 | 981.7 |
| 20260506103100 | 17 | 334 | 0.0 | 3.2 | 0.00 | 0.00 | 0.00 | 84 | 981.8 |
| 20260506102554 | 17 | 265 | 3.2 | 6.4 | 0.00 | 0.00 | 0.00 | 84 | 981.7 |
| 20260506102054 | 17 | 244 | 3.2 | 3.2 | 0.00 | 0.00 | 0.00 | 83 | 981.5 |
| 20260506101545 | 17 | 55 | 1.6 | 3.2 | 0.00 | 0.00 | 0.00 | 83 | 981.5 |
| 20260506101040 | 17 | 352 | 3.2 | 4.8 | 0.00 | 0.00 | 0.00 | 83 | 981.5 |
| 20260506100535 | 17 | 278 | 4.8 | 6.4 | 0.00 | 0.00 | 0.00 | 82 | 981.5 |
| 20260506100030 | 17 | 47 | 1.6 | 3.2 | 0.00 | 0.00 | 0.00 | 82 | 981.2 |
| 20260506095525 | 17 | 130 | 0.0 | 3.2 | 0.00 | 0.00 | 0.00 | 81 | 981.2 |
| 20260506095019 | 17 | 345 | 1.6 | 1.6 | 0.00 | 0.00 | 0.00 | 81 | 981.4 |
| 20260506094514 | 17 | 293 | 8.0 | 9.7 | 0.00 | 0.00 | 0.00 | 81 | 981.5 |
| 20260506094010 | 17 | 167 | 0.0 | 4.8 | 0.00 | 0.00 | 0.00 | 81 | 981.4 |
| 20260506093504 | 17 | 143 | 1.6 | 4.8 | 0.00 | 0.00 | 0.00 | 81 | 981.2 |
| 20260506093101 | 17 | 354 | 1.6 | 3.2 | 0.00 | 0.00 | 0.00 | 80 | 981.2 |
| 20260506092556 | 17 | 135 | 0.0 | 3.2 | 0.00 | 0.00 | 0.00 | 80 | 981.1 |
| 20260506092050 | 17 | 326 | 0.0 | 1.6 | 0.00 | 0.00 | 0.00 | 79 | 981.1 |
| 20260506091545 | 17 | 129 | 0.0 | 1.6 | 0.00 | 0.00 | 0.00 | 79 | 981.0 |
| 20260506091040 | 17 | 302 | 0.0 | 3.2 | 0.00 | 0.00 | 0.00 | 79 | 980.9 |
| 20260506090535 | 17 | 225 | 1.6 | 1.6 | 0.00 | 0.00 | 0.00 | 79 | 981.1 |
| 20260506090029 | 17 | 166 | 0.0 | 0.0 | 0.00 | 0.00 | 0.00 | 78 | 981.1 |
| 20260506085524 | 17 | 33 | 1.6 | 3.2 | 0.00 | 0.00 | 0.00 | 78 | 981.1 |
| 20260506085019 | 17 | 358 | 3.2 | 4.8 | 0.00 | 0.00 | 0.00 | 78 | 981.1 |
| 20260506084515 | 17 | 135 | 0.0 | 3.2 | 0.00 | 0.00 | 0.00 | 77 | 981.0 |
| 20260506084010 | 17 | 235 | 0.0 | 3.2 | 0.00 | 0.00 | 0.00 | 76 | 981.0 |
| 20260506083505 | 17 | 34 | 1.6 | 3.2 | 0.00 | 0.00 | 0.00 | 76 | 981.0 |
| 20260506082556 | 17 | 325 | 3.2 | 4.8 | 0.00 | 0.00 | 0.00 | 75 | 981.0 |
| 20260506082051 | 16 | 308 | 3.2 | 3.2 | 0.00 | 0.00 | 0.00 | 74 | 981.2 |
| 20260506081546 | 16 | 55 | 0.0 | 1.6 | 0.00 | 0.00 | 0.00 | 73 | 981.1 |
| 20260506081042 | 16 | 157 | 0.0 | 1.6 | 0.00 | 0.00 | 0.00 | 73 | 980.9 |
| 20260506080537 | 16 | 249 | 0.0 | 3.2 | 0.00 | 0.00 | 0.00 | 73 | 981.2 |
| 20260506073506 | 16 | 135 | 0.0 | 3.2 | 0.00 | 0.00 | 0.00 | 70 | 981.3 |
| 20260506073001 | 16 | 38 | 0.0 | 3.2 | 0.00 | 0.00 | 0.00 | 70 | 981.4 |
| 20260506072557 | 16 | 97 | 1.6 | 1.6 | 0.00 | 0.00 | 0.00 | 70 | 981.2 |
| 20260506072052 | 16 | 122 | 0.0 | 0.0 | 0.00 | 0.00 | 0.00 | 70 | 981.5 |
| 20260506071547 | 16 | 146 | 0.0 | 1.6 | 0.00 | 0.00 | 0.00 | 71 | 981.8 |
| 20260506071042 | 15 | 142 | 0.0 | 0.0 | 0.00 | 0.00 | 0.00 | 71 | 981.8 |
| 20260506070537 | 15 | 37 | 0.0 | 1.6 | 0.00 | 0.00 | 0.00 | 70 | 981.7 |
| 20260506062057 | 16 | 141 | 0.0 | 3.2 | 0.00 | 0.00 | 0.00 | 66 | 981.9 |
| 20260506061549 | 16 | 28 | 0.0 | 1.6 | 0.00 | 0.00 | 0.00 | 65 | 982.0 |
| 20260506061043 | 16 | 37 | 0.0 | 0.0 | 0.00 | 0.00 | 0.00 | 64 | 981.8 |
| 20260506060538 | 17 | 29 | 0.0 | 0.0 | 0.00 | 0.00 | 0.00 | 64 | 981.9 |
| 20260506051049 | 17 | 283 | 0.0 | 0.0 | 0.00 | 0.00 | 0.00 | 62 | 981.3 |
| 20260506050544 | 17 | 352 | 0.0 | 3.2 | 0.00 | 0.00 | 0.00 | 62 | 981.6 |
| 20260506045023 | 17 | 113 | 0.0 | 0.0 | 0.00 | 0.00 | 0.00 | 61 | 981.8 |
| 20260506044519 | 17 | 269 | 0.0 | 0.0 | 0.00 | 0.00 | 0.00 | 60 | 982.2 |
| 20260506044014 | 17 | 297 | 0.0 | 1.6 | 0.00 | 0.00 | 0.00 | 60 | 981.8 |
| 20260506043509 | 17 | 256 | 0.0 | 1.6 | 0.00 | 0.00 | 0.00 | 60 | 982.0 |
| 20260506043008 | 17 | 314 | 1.6 | 3.2 | 0.00 | 0.00 | 0.00 | 60 | 981.8 |
| 20260506042559 | 17 | 238 | 0.0 | 3.2 | 0.00 | 0.00 | 0.00 | 61 | 981.8 |
| 20260506042055 | 17 | 299 | 3.2 | 4.8 | 0.00 | 0.00 | 0.00 | 60 | 981.8 |
| 20260506041551 | 17 | 309 | 0.0 | 3.2 | 0.00 | 0.00 | 0.00 | 62 | 981.7 |
| 20260506041045 | 17 | 286 | 1.6 | 1.6 | 0.00 | 0.00 | 0.00 | 62 | 981.5 |
| 20260506040545 | 17 | 342 | 1.6 | 3.2 | 0.00 | 0.00 | 0.00 | 62 | 981.7 |
| 20260506040040 | 17 | 245 | 3.2 | 3.2 | 0.00 | 0.00 | 0.00 | 61 | 981.5 |
| 20260506035535 | 17 | 144 | 0.0 | 1.6 | 0.00 | 0.00 | 0.00 | 60 | 981.4 |
| 20260506035025 | 17 | 326 | 0.0 | 0.0 | 0.00 | 0.00 | 0.00 | 60 | 981.6 |
| 20260506034520 | 17 | 283 | 0.0 | 1.6 | 0.00 | 0.00 | 0.00 | 61 | 981.9 |
| 20260506034015 | 17 | 246 | 0.0 | 0.0 | 0.00 | 0.00 | 0.00 | 60 | 981.7 |
| 20260506033510 | 17 | 304 | 0.0 | 1.6 | 0.00 | 0.00 | 0.00 | 61 | 981.8 |
| 20260506033009 | 17 | 345 | 0.0 | 0.0 | 0.00 | 0.00 | 0.00 | 59 | 981.9 |
| 20260506032100 | 17 | 142 | 0.0 | 0.0 | 0.00 | 0.00 | 0.00 | 60 | 981.8 |
| 20260506031552 | 17 | 173 | 0.0 | 0.0 | 0.00 | 0.00 | 0.00 | 59 | 981.8 |
| 20260506031047 | 17 | 147 | 0.0 | 0.0 | 0.00 | 0.00 | 0.00 | 58 | 981.8 |
| 20260506030542 | 18 | 293 | 0.0 | 0.0 | 0.00 | 0.00 | 0.00 | 58 | 981.8 |
| 20260506030036 | 18 | 311 | 1.6 | 3.2 | 0.00 | 0.00 | 0.00 | 58 | 981.9 |
| 20260506025532 | 18 | 224 | 0.0 | 1.6 | 0.00 | 0.00 | 0.00 | 59 | 981.9 |
| 20260506025031 | 18 | 141 | 0.0 | 1.6 | 0.00 | 0.00 | 0.00 | 58 | 981.8 |
| 20260506024522 | 18 | 266 | 3.2 | 3.2 | 0.00 | 0.00 | 0.00 | 59 | 981.9 |
| 20260506024016 | 18 | 258 | 0.0 | 3.2 | 0.00 | 0.00 | 0.00 | 59 | 981.7 |
| 20260506023511 | 18 | 283 | 0.0 | 1.6 | 0.00 | 0.00 | 0.00 | 58 | 981.9 |
| 20260506023011 | 18 | 338 | 0.0 | 1.6 | 0.00 | 0.00 | 0.00 | 58 | 981.8 |
| 20260506022501 | 18 | 148 | 0.0 | 0.0 | 0.00 | 0.00 | 0.00 | 58 | 982.0 |
| 20260506022057 | 18 | 290 | 0.0 | 0.0 | 0.00 | 0.00 | 0.00 | 57 | 981.9 |
| 20260506021553 | 18 | 230 | 0.0 | 0.0 | 0.00 | 0.00 | 0.00 | 56 | 981.9 |
| 20260506021053 | 18 | 219 | 0.0 | 1.6 | 0.00 | 0.00 | 0.00 | 56 | 981.8 |
| 20260506020542 | 18 | 142 | 0.0 | 0.0 | 0.00 | 0.00 | 0.00 | 56 | 981.7 |
| 20260506020043 | 18 | 141 | 0.0 | 1.6 | 0.00 | 0.00 | 0.00 | 56 | 981.8 |
| 20260506015532 | 18 | 142 | 0.0 | 1.6 | 0.00 | 0.00 | 0.00 | 56 | 981.7 |
| 20260506015028 | 18 | 157 | 0.0 | 1.6 | 0.00 | 0.00 | 0.00 | 55 | 981.7 |
| 20260506014522 | 18 | 290 | 1.6 | 1.6 | 0.00 | 0.00 | 0.00 | 55 | 981.7 |
| 20260506014017 | 18 | 142 | 0.0 | 1.6 | 0.00 | 0.00 | 0.00 | 54 | 981.4 |
| 20260506013512 | 19 | 150 | 0.0 | 0.0 | 0.00 | 0.00 | 0.00 | 55 | 981.6 |
| 20260506013007 | 19 | 169 | 0.0 | 1.6 | 0.00 | 0.00 | 0.00 | 54 | 981.7 |
| 20260506012502 | 19 | 129 | 0.0 | 1.6 | 0.00 | 0.00 | 0.00 | 54 | 981.6 |
| 20260506012058 | 19 | 142 | 0.0 | 0.0 | 0.00 | 0.00 | 0.00 | 53 | 981.6 |
| 20260506011553 | 20 | 110 | 0.0 | 0.0 | 0.00 | 0.00 | 0.00 | 52 | 981.4 |
| 20260506011048 | 20 | 142 | 0.0 | 0.0 | 0.00 | 0.00 | 0.00 | 52 | 981.5 |
| 20260506010543 | 20 | 217 | 0.0 | 0.0 | 0.00 | 0.00 | 0.00 | 51 | 981.5 |
| 20260506010038 | 20 | 199 | 0.0 | 1.6 | 0.00 | 0.00 | 0.00 | 50 | 981.6 |
| 20260506005533 | 20 | 212 | 0.0 | 0.0 | 0.00 | 0.00 | 0.00 | 49 | 981.6 |
| 20260506005027 | 21 | 142 | 0.0 | 0.0 | 0.00 | 0.00 | 0.00 | 49 | 981.6 |
| 20260506004523 | 21 | 142 | 0.0 | 1.6 | 0.00 | 0.00 | 0.00 | 49 | 981.5 |
| 20260506004017 | 21 | 141 | 0.0 | 1.6 | 0.00 | 0.00 | 0.00 | 48 | 981.7 |
| 20260506003512 | 21 | 143 | 0.0 | 0.0 | 0.00 | 0.00 | 0.00 | 48 | 981.7 |
| 20260506003007 | 22 | 238 | 0.0 | 3.2 | 0.00 | 0.00 | 0.00 | 47 | 981.8 |
| 20260506002507 | 22 | 310 | 0.0 | 3.2 | 0.00 | 0.00 | 0.00 | 45 | 981.6 |
| 20260506002058 | 22 | 242 | 0.0 | 0.0 | 0.00 | 0.00 | 0.00 | 46 | 981.5 |
| 20260506001554 | 22 | 95 | 3.2 | 3.2 | 0.00 | 0.00 | 0.00 | 43 | 981.4 |
| 20260506001049 | 22 | 259 | 0.0 | 1.6 | 0.00 | 0.00 | 0.00 | 43 | 981.5 |
| 20260506000544 | 22 | 245 | 0.0 | 3.2 | 0.00 | 0.00 | 0.00 | 43 | 981.6 |
| 20260506000039 | 23 | 199 | 1.6 | 3.2 | 0.00 | 0.00 | 0.00 | 42 | 981.2 |
| 20260505235534 | 23 | 166 | 1.6 | 4.8 | 0.00 | 0.00 | 0.00 | 40 | 981.4 |
| 20260505235029 | 23 | 60 | 0.0 | 3.2 | 0.00 | 0.00 | 0.00 | 39 | 981.1 |
| 20260505234528 | 23 | 23 | 0.0 | 4.8 | 0.00 | 0.00 | 0.00 | 38 | 981.3 |
| 20260505234019 | 24 | 241 | 0.0 | 4.8 | 0.00 | 0.00 | 0.00 | 40 | 981.4 |
| 20260505233519 | 24 | 231 | 4.8 | 4.8 | 0.00 | 0.00 | 0.00 | 38 | 981.4 |
| 20260505233009 | 24 | 272 | 0.0 | 4.8 | 0.00 | 0.00 | 0.00 | 38 | 981.4 |
| 20260505232504 | 24 | 252 | 0.0 | 6.4 | 0.00 | 0.00 | 0.00 | 38 | 981.5 |
| 20260505232104 | 24 | 321 | 3.2 | 11.3 | 0.00 | 0.00 | 0.00 | 38 | 981.3 |
| 20260505231054 | 25 | 338 | 6.4 | 8.0 | 0.00 | 0.00 | 0.00 | 37 | 981.2 |
| 20260505230554 | 25 | 327 | 6.4 | 9.7 | 0.00 | 0.00 | 0.00 | 35 | 981.1 |
| 20260505230044 | 25 | 180 | 0.0 | 3.2 | 0.00 | 0.00 | 0.00 | 36 | 981.1 |
| 20260505225539 | 26 | 244 | 6.4 | 6.4 | 0.00 | 0.00 | 0.00 | 34 | 981.3 |
| 20260505225034 | 26 | 303 | 6.4 | 9.7 | 0.00 | 0.00 | 0.00 | 32 | 981.1 |
| 20260505224529 | 27 | 234 | 3.2 | 8.0 | 0.00 | 0.00 | 0.00 | 32 | 981.1 |
| 20260505224029 | 27 | 293 | 1.6 | 6.4 | 0.00 | 0.00 | 0.00 | 32 | 981.1 |
| 20260505223524 | 27 | 231 | 1.6 | 9.7 | 0.00 | 0.00 | 0.00 | 32 | 981.1 |
| 20260505223013 | 27 | 258 | 4.8 | 6.4 | 0.00 | 0.00 | 0.00 | 35 | 981.0 |
| 20260505222509 | 27 | 81 | 1.6 | 4.8 | 0.00 | 0.00 | 0.00 | 34 | 981.1 |
| 20260505222003 | 27 | 300 | 1.6 | 9.7 | 0.00 | 0.00 | 0.00 | 33 | 980.9 |
| 20260505221559 | 27 | 284 | 6.4 | 9.7 | 0.00 | 0.00 | 0.00 | 32 | 981.0 |
| 20260505221054 | 27 | 299 | 1.6 | 17.7 | 0.00 | 0.00 | 0.00 | 32 | 980.7 |
| 20260505220555 | 27 | 286 | 3.2 | 8.0 | 0.00 | 0.00 | 0.00 | 31 | 980.9 |
| 20260505220044 | 27 | 290 | 3.2 | 9.7 | 0.00 | 0.00 | 0.00 | 31 | 981.0 |
| 20260505215539 | 27 | 272 | 1.6 | 9.7 | 0.00 | 0.00 | 0.00 | 32 | 980.7 |
| 20260505215034 | 28 | 140 | 1.6 | 9.7 | 0.00 | 0.00 | 0.00 | 31 | 980.9 |
| 20260505214529 | 27 | 150 | 0.0 | 8.0 | 0.00 | 0.00 | 0.00 | 35 | 981.0 |
| 20260505214024 | 27 | 318 | 6.4 | 20.9 | 0.00 | 0.00 | 0.00 | 32 | 981.1 |
| 20260505213519 | 28 | 40 | 4.8 | 6.4 | 0.00 | 0.00 | 0.00 | 33 | 981.3 |
| 20260505213014 | 27 | 109 | 6.4 | 6.4 | 0.00 | 0.00 | 0.00 | 32 | 981.1 |
| 20260505212514 | 27 | 283 | 8.0 | 9.7 | 0.00 | 0.00 | 0.00 | 33 | 981.2 |
| 20260505212004 | 27 | 230 | 0.0 | 6.4 | 0.00 | 0.00 | 0.00 | 33 | 981.1 |
| 20260505211600 | 27 | 245 | 11.3 | 14.5 | 0.00 | 0.00 | 0.00 | 32 | 981.2 |
| 20260505211055 | 27 | 344 | 1.6 | 9.7 | 0.00 | 0.00 | 0.00 | 32 | 981.2 |
| 20260505210555 | 27 | 43 | 4.8 | 8.0 | 0.00 | 0.00 | 0.00 | 33 | 981.3 |
| 20260505210050 | 27 | 269 | 0.0 | 6.4 | 0.00 | 0.00 | 0.00 | 36 | 981.2 |
| 20260505205540 | 26 | 333 | 12.9 | 12.9 | 0.00 | 0.00 | 0.00 | 34 | 981.3 |
| 20260505205035 | 26 | 163 | 3.2 | 6.4 | 0.00 | 0.00 | 0.00 | 34 | 981.2 |
| 20260505204530 | 26 | 116 | 3.2 | 9.7 | 0.00 | 0.00 | 0.00 | 35 | 981.6 |
| 20260505204025 | 26 | 99 | 6.4 | 11.3 | 0.00 | 0.00 | 0.00 | 36 | 981.7 |
| 20260505203525 | 26 | 125 | 6.4 | 6.4 | 0.00 | 0.00 | 0.00 | 35 | 981.9 |
| 20260505203015 | 27 | 258 | 3.2 | 9.7 | 0.00 | 0.00 | 0.00 | 33 | 981.9 |
| 20260505202510 | 27 | 300 | 9.7 | 9.7 | 0.00 | 0.00 | 0.00 | 32 | 981.9 |
| 20260505202005 | 28 | 267 | 6.4 | 17.7 | 0.00 | 0.00 | 0.00 | 30 | 981.9 |
| 20260505201056 | 27 | 160 | 1.6 | 16.1 | 0.00 | 0.00 | 0.00 | 33 | 982.0 |
| 20260505200551 | 27 | 244 | 4.8 | 12.9 | 0.00 | 0.00 | 0.00 | 31 | 982.0 |
| 20260505200046 | 26 | 276 | 4.8 | 14.5 | 0.00 | 0.00 | 0.00 | 34 | 982.1 |
| 20260505195541 | 26 | 87 | 0.0 | 8.0 | 0.00 | 0.00 | 0.00 | 34 | 982.2 |
| 20260505195036 | 26 | 166 | 1.6 | 6.4 | 0.00 | 0.00 | 0.00 | 33 | 982.3 |
| 20260505194531 | 27 | 251 | 6.4 | 9.7 | 0.00 | 0.00 | 0.00 | 31 | 982.4 |
| 20260505194026 | 26 | 202 | 1.6 | 14.5 | 0.00 | 0.00 | 0.00 | 34 | 982.4 |
| 20260505193520 | 26 | 134 | 6.4 | 11.3 | 0.00 | 0.00 | 0.00 | 33 | 982.5 |
| 20260505193020 | 27 | 319 | 6.4 | 9.7 | 0.00 | 0.00 | 0.00 | 36 | 982.6 |
| 20260505192510 | 26 | 174 | 3.2 | 6.4 | 0.00 | 0.00 | 0.00 | 37 | 982.6 |
| 20260505192005 | 26 | 111 | 3.2 | 9.7 | 0.00 | 0.00 | 0.00 | 36 | 982.6 |
| 20260505191056 | 26 | 55 | 8.0 | 9.7 | 0.00 | 0.00 | 0.00 | 35 | 982.4 |
| 20260505190556 | 26 | 73 | 4.8 | 9.7 | 0.00 | 0.00 | 0.00 | 36 | 982.8 |
| 20260505190051 | 26 | 317 | 11.3 | 12.9 | 0.00 | 0.00 | 0.00 | 35 | 982.8 |
| 20260505185545 | 26 | 305 | 3.2 | 8.0 | 0.00 | 0.00 | 0.00 | 36 | 982.9 |
| 20260505185035 | 26 | 295 | 4.8 | 9.7 | 0.00 | 0.00 | 0.00 | 36 | 983.0 |
| 20260505184530 | 25 | 43 | 6.4 | 9.7 | 0.00 | 0.00 | 0.00 | 39 | 983.2 |
| 20260505184026 | 25 | 295 | 4.8 | 11.3 | 0.00 | 0.00 | 0.00 | 39 | 983.1 |
| 20260505183521 | 25 | 327 | 3.2 | 8.0 | 0.00 | 0.00 | 0.00 | 39 | 983.4 |
| 20260505183016 | 25 | 346 | 12.9 | 14.5 | 0.00 | 0.00 | 0.00 | 39 | 983.2 |
| 20260505182516 | 25 | 289 | 11.3 | 24.1 | 0.00 | 0.00 | 0.00 | 38 | 983.2 |
| 20260505182006 | 25 | 102 | 3.2 | 16.1 | 0.00 | 0.00 | 0.00 | 40 | 983.4 |
| 20260505181501 | 25 | 319 | 6.4 | 11.3 | 0.00 | 0.00 | 0.00 | 37 | 983.5 |
| 20260505181057 | 25 | 305 | 6.4 | 12.9 | 0.00 | 0.00 | 0.00 | 39 | 983.6 |
| 20260505180552 | 25 | 171 | 6.4 | 9.7 | 0.00 | 0.00 | 0.00 | 38 | 983.6 |
| 20260505180047 | 25 | 133 | 1.6 | 4.8 | 0.00 | 0.00 | 0.00 | 38 | 983.7 |
| 20260505175542 | 25 | 318 | 9.7 | 12.9 | 0.00 | 0.00 | 0.00 | 39 | 984.0 |
| 20260505175042 | 25 | 319 | 3.2 | 8.0 | 0.00 | 0.00 | 0.00 | 40 | 984.0 |
| 20260505174537 | 25 | 181 | 1.6 | 6.4 | 0.00 | 0.00 | 0.00 | 39 | 984.1 |
| 20260505174027 | 24 | 240 | 0.0 | 9.7 | 0.00 | 0.00 | 0.00 | 43 | 984.0 |
| 20260505173522 | 24 | 273 | 4.8 | 20.9 | 0.00 | 0.00 | 0.00 | 42 | 984.2 |
| 20260505173018 | 24 | 216 | 3.2 | 11.3 | 0.00 | 0.00 | 0.00 | 40 | 984.0 |
| 20260505172512 | 24 | 149 | 3.2 | 9.7 | 0.00 | 0.00 | 0.00 | 40 | 984.1 |
| 20260505172008 | 25 | 220 | 8.0 | 8.0 | 0.00 | 0.00 | 0.00 | 40 | 984.1 |
| 20260505171507 | 24 | 35 | 1.6 | 6.4 | 0.00 | 0.00 | 0.00 | 43 | 984.1 |
| 20260505171058 | 24 | 230 | 8.0 | 20.9 | 0.00 | 0.00 | 0.00 | 40 | 984.3 |
| 20260505170558 | 24 | 284 | 1.6 | 9.7 | 0.00 | 0.00 | 0.00 | 41 | 984.2 |
| 20260505170048 | 25 | 45 | 3.2 | 8.0 | 0.00 | 0.00 | 0.00 | 40 | 984.2 |
| 20260505165548 | 24 | 63 | 1.6 | 12.9 | 0.00 | 0.00 | 0.00 | 43 | 984.2 |
| 20260505165038 | 23 | 287 | 1.6 | 6.4 | 0.00 | 0.00 | 0.00 | 45 | 984.2 |
| 20260505164533 | 23 | 284 | 8.0 | 16.1 | 0.00 | 0.00 | 0.00 | 43 | 984.4 |
| 20260505164028 | 23 | 23 | 1.6 | 9.7 | 0.00 | 0.00 | 0.00 | 41 | 984.4 |
| 20260505163523 | 23 | 15 | 3.2 | 14.5 | 0.00 | 0.00 | 0.00 | 44 | 984.2 |
| 20260505163019 | 23 | 281 | 4.8 | 6.4 | 0.00 | 0.00 | 0.00 | 45 | 984.3 |
| 20260505162513 | 22 | 257 | 0.0 | 3.2 | 0.00 | 0.00 | 0.00 | 46 | 984.2 |
| 20260505162008 | 22 | 307 | 11.3 | 12.9 | 0.00 | 0.00 | 0.00 | 46 | 984.5 |
| 20260505161503 | 22 | 0 | 6.4 | 8.0 | 0.00 | 0.00 | 0.00 | 46 | 984.4 |
| 20260505161059 | 22 | 145 | 3.2 | 14.5 | 0.00 | 0.00 | 0.00 | 46 | 984.5 |
| 20260505160554 | 22 | 64 | 0.0 | 9.7 | 0.00 | 0.00 | 0.00 | 46 | 984.4 |
| 20260505153019 | 21 | 169 | 3.2 | 4.8 | 0.00 | 0.00 | 0.00 | 49 | 985.2 |
| 20260505152513 | 21 | 318 | 9.7 | 12.9 | 0.00 | 0.00 | 0.00 | 50 | 984.9 |
| 20260505152008 | 21 | 315 | 4.8 | 6.4 | 0.00 | 0.00 | 0.00 | 50 | 984.9 |
| 20260505151503 | 21 | 235 | 0.0 | 8.0 | 0.00 | 0.00 | 0.00 | 50 | 984.8 |
| 20260505151100 | 21 | 6 | 6.4 | 16.1 | 0.00 | 0.00 | 0.00 | 48 | 984.8 |
| 20260505150554 | 21 | 243 | 0.0 | 11.3 | 0.00 | 0.00 | 0.00 | 51 | 984.8 |
| 20260505140555 | 22 | 188 | 1.6 | 6.4 | 0.00 | 0.00 | 0.00 | 52 | 984.3 |
| 20260505125041 | 17 | 114 | 4.8 | 6.4 | 0.00 | 0.00 | 0.00 | 68 | 983.5 |
| 20260505124535 | 16 | 32 | 0.0 | 4.8 | 0.00 | 0.00 | 0.00 | 71 | 983.6 |
| 20260505124036 | 16 | 105 | 6.4 | 6.4 | 0.00 | 0.00 | 0.00 | 74 | 983.8 |
| 20260505123526 | 15 | 110 | 4.8 | 4.8 | 0.00 | 0.00 | 0.00 | 76 | 983.6 |
| 20260505123021 | 15 | 97 | 3.2 | 3.2 | 0.00 | 0.00 | 0.00 | 75 | 983.5 |
| 20260505122516 | 14 | 50 | 0.0 | 0.0 | 0.00 | 0.00 | 0.00 | 75 | 983.6 |
| 20260505122011 | 14 | 142 | 0.0 | 0.0 | 0.00 | 0.00 | 0.00 | 76 | 983.5 |
| 20260505121506 | 14 | 116 | 3.2 | 4.8 | 0.00 | 0.00 | 0.00 | 76 | 983.7 |
| 20260505121001 | 13 | 88 | 3.2 | 4.8 | 0.00 | 0.00 | 0.00 | 79 | 983.5 |
| 20260505120601 | 13 | 105 | 4.8 | 4.8 | 0.00 | 0.00 | 0.00 | 77 | 983.5 |
| 20260505120057 | 13 | 95 | 4.8 | 4.8 | 0.00 | 0.00 | 0.00 | 79 | 983.6 |
| 20260505115548 | 13 | 108 | 3.2 | 4.8 | 0.00 | 0.00 | 0.00 | 77 | 983.5 |
| 20260505115042 | 13 | 101 | 1.6 | 3.2 | 0.00 | 0.00 | 0.00 | 77 | 983.2 |
| 20260505114542 | 12 | 108 | 1.6 | 4.8 | 0.00 | 0.00 | 0.00 | 78 | 983.4 |
| 20260505114037 | 12 | 85 | 1.6 | 1.6 | 0.00 | 0.00 | 0.00 | 80 | 983.2 |
| 20260505113527 | 12 | 124 | 0.0 | 0.0 | 0.00 | 0.00 | 0.00 | 79 | 983.0 |
| 20260505113022 | 12 | 119 | 0.0 | 0.0 | 0.00 | 0.00 | 0.00 | 79 | 983.0 |
| 20260505112517 | 11 | 76 | 0.0 | 1.6 | 0.00 | 0.00 | 0.00 | 83 | 983.1 |
| 20260505112012 | 10 | 103 | 0.0 | 3.2 | 0.00 | 0.00 | 0.00 | 85 | 983.0 |
| 20260505111507 | 10 | 97 | 3.2 | 3.2 | 0.00 | 0.00 | 0.00 | 87 | 983.1 |
| 20260505111002 | 10 | 76 | 0.0 | 1.6 | 0.00 | 0.00 | 0.00 | 86 | 983.1 |
| 20260505110558 | 10 | 86 | 1.6 | 3.2 | 0.00 | 0.00 | 0.00 | 86 | 982.9 |